Time;durP1;ratioP1;P1;durP2;ratioP2;P2;SDS_P1;SDS_P2;PMS_P1;PMS_P2;Temp;Humidity;BMP_temperature;BMP_pressure;BME280_temperature;BME280_humidity;BME280_pressure;Samples;Min_cycle;Max_cycle;Signal;HPM_P1;HPM_P2
2022/09/23 00:01:31;;;;;;;5.07;2.70;;;9.30;99.90;;;;;;5052314;28;20186;-75
2022/09/23 00:03:58;;;;;;;4.00;2.40;;;9.30;99.90;;;;;;5050789;28;20626;-75
2022/09/23 00:06:24;;;;;;;4.00;3.03;;;9.30;99.90;;;;;;5051152;28;20911;-74
2022/09/23 00:08:51;;;;;;;2.90;2.60;;;9.30;99.90;;;;;;5051094;28;20900;-74
2022/09/23 00:11:26;;;;;;;3.40;2.53;;;9.30;99.90;;;;;;5053581;28;21032;-75
2022/09/23 00:13:55;;;;;;;2.60;2.40;;;9.20;99.90;;;;;;5051921;28;20818;-75
2022/09/23 00:16:32;;;;;;;2.20;2.10;;;9.10;99.90;;;;;;5051880;28;20565;-75
2022/09/23 00:18:59;;;;;;;3.90;2.30;;;9.10;99.90;;;;;;5051905;28;20410;-75
2022/09/23 00:21:25;;;;;;;2.27;2.13;;;9.20;99.90;;;;;;5050692;28;20811;-75
2022/09/23 00:23:51;;;;;;;3.70;3.03;;;9.20;99.90;;;;;;5050344;28;20455;-75
2022/09/23 00:26:19;;;;;;;4.97;2.67;;;9.10;99.90;;;;;;5050342;28;20188;-75
2022/09/23 00:28:46;;;;;;;2.50;2.30;;;9.10;99.90;;;;;;5051556;28;20936;-75
2022/09/23 00:31:15;;;;;;;5.23;2.80;;;9.00;99.90;;;;;;5051624;28;20523;-75
2022/09/23 00:33:41;;;;;;;2.67;2.47;;;9.00;99.90;;;;;;5051738;28;20435;-75
2022/09/23 00:36:14;;;;;;;3.50;3.20;;;8.90;99.90;;;;;;5033399;28;20450;-74
2022/09/23 00:38:40;;;;;;;3.73;3.43;;;8.90;99.90;;;;;;5051826;28;20157;-75
2022/09/23 00:41:06;;;;;;;3.93;2.70;;;9.00;99.90;;;;;;5051408;28;20434;-75
2022/09/23 00:43:51;;;;;;;4.30;2.83;;;9.00;99.90;;;;;;5051330;28;20844;-75
2022/09/23 00:46:39;;;;;;;3.10;2.80;;;8.90;99.90;;;;;;5051827;28;20543;-75
2022/09/23 00:49:05;;;;;;;2.80;2.40;;;9.10;99.90;;;;;;5051283;28;20911;-75
2022/09/23 00:51:35;;;;;;;2.97;2.50;;;9.30;99.90;;;;;;5051274;28;20459;-75
2022/09/23 00:54:02;;;;;;;2.30;2.20;;;9.30;99.90;;;;;;5051230;28;20199;-75
2022/09/23 00:56:30;;;;;;;3.27;2.30;;;9.50;99.90;;;;;;5051205;28;20430;-75
2022/09/23 00:58:55;;;;;;;2.70;2.50;;;9.60;99.90;;;;;;5051188;28;20432;-75
2022/09/23 01:01:23;;;;;;;2.13;2.03;;;9.60;99.90;;;;;;5051026;28;20424;-75
2022/09/23 01:03:50;;;;;;;2.53;2.33;;;9.80;99.90;;;;;;5051141;28;20208;-75
2022/09/23 01:06:16;;;;;;;2.80;2.60;;;9.80;99.90;;;;;;5050949;28;20475;-75
2022/09/23 01:08:44;;;;;;;2.90;2.60;;;9.70;99.90;;;;;;5049400;28;20533;-75
2022/09/23 01:11:25;;;;;;;3.20;2.50;;;9.60;99.90;;;;;;5050995;28;20475;-75
2022/09/23 01:14:09;;;;;;;7.00;2.60;;;9.60;99.90;;;;;;5050628;28;20436;-75
2022/09/23 01:16:42;;;;;;;3.80;2.47;;;9.50;99.90;;;;;;5050634;28;20408;-75
2022/09/23 01:19:23;;;;;;;2.47;2.27;;;9.30;99.90;;;;;;5049889;28;20419;-75
2022/09/23 01:21:48;;;;;;;3.40;2.70;;;9.20;99.90;;;;;;5049030;28;20431;-75
2022/09/23 01:24:42;;;;;;;3.03;2.77;;;9.10;99.90;;;;;;5050561;28;20435;-75
2022/09/23 01:27:22;;;;;;;3.40;2.77;;;9.00;99.90;;;;;;5051328;28;20264;-74
2022/09/23 01:30:05;;;;;;;2.90;2.70;;;9.00;99.90;;;;;;5052374;28;20465;-75
2022/09/23 01:32:58;;;;;;;5.57;3.20;;;9.10;99.90;;;;;;5051792;28;20808;-75
2022/09/23 01:35:52;;;;;;;4.33;2.70;;;9.30;99.90;;;;;;5051019;28;20430;-75
2022/09/23 01:38:36;;;;;;;2.90;2.30;;;9.30;99.90;;;;;;5051888;28;20457;-74
2022/09/23 01:41:23;;;;;;;1.93;1.77;;;9.50;99.90;;;;;;5050251;28;20438;-74
2022/09/23 01:44:06;;;;;;;2.20;2.00;;;9.60;99.90;;;;;;5051580;28;20439;-75
2022/09/23 01:46:40;;;;;;;2.27;2.10;;;9.60;99.90;;;;;;5051183;28;20409;-75
2022/09/23 01:49:08;;;;;;;3.97;2.90;;;9.70;99.90;;;;;;5050394;28;20833;-75
2022/09/23 01:51:38;;;;;;;2.50;2.30;;;9.80;99.90;;;;;;5049830;28;20463;-75
2022/09/23 01:54:03;;;;;;;2.93;2.10;;;9.90;99.90;;;;;;5048265;28;20538;-75
2022/09/23 01:56:55;;;;;;;2.23;2.00;;;10.00;99.90;;;;;;5049102;28;20534;-75
2022/09/23 01:59:29;;;;;;;3.80;2.03;;;10.10;99.90;;;;;;5049769;28;20187;-75
2022/09/23 02:02:01;;;;;;;4.90;2.13;;;10.10;99.90;;;;;;5047967;28;20456;-75
2022/09/23 02:04:56;;;;;;;2.50;2.30;;;10.10;99.90;;;;;;5049606;28;20423;-75
2022/09/23 02:07:36;;;;;;;2.03;1.83;;;10.20;99.90;;;;;;5045422;28;20845;-75
2022/09/23 02:10:06;;;;;;;2.93;2.30;;;10.20;99.90;;;;;;5049250;28;20464;-75
2022/09/23 02:12:34;;;;;;;2.40;2.20;;;10.20;99.90;;;;;;5047746;28;20467;-75
2022/09/23 02:15:09;;;;;;;3.13;2.83;;;10.10;99.90;;;;;;5049338;28;20518;-75
2022/09/23 02:17:51;;;;;;;2.83;2.03;;;10.10;99.90;;;;;;5049210;28;20449;-75
2022/09/23 02:20:22;;;;;;;2.00;1.80;;;10.00;99.90;;;;;;5049300;28;20418;-75
2022/09/23 02:23:11;;;;;;;1.90;1.80;;;10.00;99.90;;;;;;5049229;28;20447;-75
2022/09/23 02:26:15;;;;;;;3.50;2.40;;;10.10;99.90;;;;;;5049073;28;21012;-75
2022/09/23 02:29:10;;;;;;;2.90;2.70;;;9.90;99.90;;;;;;5024317;28;20431;-75
2022/09/23 02:31:56;;;;;;;2.90;2.50;;;9.70;99.90;;;;;;5048008;28;20556;-75
2022/09/23 02:34:46;;;;;;;2.80;2.30;;;9.60;99.90;;;;;;5048774;28;20480;-75
2022/09/23 02:37:31;;;;;;;3.40;3.00;;;9.40;99.90;;;;;;5048972;28;20508;-75
2022/09/23 02:40:27;;;;;;;3.13;2.83;;;9.20;99.90;;;;;;5047382;28;20439;-75
2022/09/23 02:42:55;;;;;;;10.23;3.00;;;9.10;99.90;;;;;;5048996;28;20422;-75
2022/09/23 02:45:21;;;;;;;4.30;3.13;;;8.90;99.90;;;;;;5048969;28;21019;-75
2022/09/23 02:47:52;;;;;;;4.40;3.70;;;8.90;99.90;;;;;;5049240;28;20412;-75
2022/09/23 02:50:18;;;;;;;5.20;4.70;;;8.80;99.90;;;;;;5048046;28;20225;-75
2022/09/23 02:52:45;;;;;;;7.50;4.47;;;8.60;99.90;;;;;;5049426;28;20441;-74
2022/09/23 02:55:16;;;;;;;5.03;4.53;;;8.50;99.90;;;;;;5049365;28;20635;-75
2022/09/23 02:57:42;;;;;;;5.77;5.17;;;8.40;99.90;;;;;;5049274;28;20439;-74
2022/09/23 03:00:09;;;;;;;6.33;4.90;;;8.30;99.90;;;;;;5050797;28;20509;-75
2022/09/23 03:03:05;;;;;;;4.90;4.50;;;8.30;99.90;;;;;;5048174;28;20458;-75
2022/09/23 03:05:36;;;;;;;8.30;4.70;;;8.30;99.90;;;;;;5049534;28;20422;-74
2022/09/23 03:08:24;;;;;;;5.63;4.90;;;8.20;99.90;;;;;;5049767;28;20444;-75
2022/09/23 03:11:03;;;;;;;6.60;5.37;;;8.10;99.90;;;;;;5049511;28;20988;-75
2022/09/23 03:14:07;;;;;;;7.40;6.10;;;8.00;99.90;;;;;;5049766;28;20445;-74
2022/09/23 03:16:43;;;;;;;6.80;5.63;;;7.90;99.90;;;;;;5047804;28;20434;-75
2022/09/23 03:19:33;;;;;;;8.47;6.00;;;7.80;99.90;;;;;;5050041;28;20467;-75
2022/09/23 03:22:11;;;;;;;7.47;6.40;;;7.70;99.90;;;;;;5049888;28;20418;-75
2022/09/23 03:24:43;;;;;;;8.27;6.20;;;7.60;99.90;;;;;;5049903;28;20407;-75
2022/09/23 03:27:16;;;;;;;7.20;6.50;;;7.50;99.90;;;;;;5048648;28;20521;-74
2022/09/23 03:29:48;;;;;;;7.13;5.90;;;7.40;99.90;;;;;;5049922;28;20411;-75
2022/09/23 03:32:18;;;;;;;8.50;7.27;;;7.40;99.90;;;;;;5049692;28;20789;-75
2022/09/23 03:34:47;;;;;;;12.70;6.43;;;7.30;99.90;;;;;;5049726;28;20398;-75
2022/09/23 03:37:26;;;;;;;10.37;6.87;;;7.30;99.90;;;;;;5049673;28;20407;-75
2022/09/23 03:40:08;;;;;;;10.97;6.10;;;7.20;99.90;;;;;;5049663;28;20497;-75
2022/09/23 03:42:36;;;;;;;10.23;6.93;;;7.10;99.90;;;;;;5050164;28;20443;-75
2022/09/23 03:45:05;;;;;;;8.43;6.57;;;7.10;99.90;;;;;;5053219;28;20403;-74
2022/09/23 03:47:31;;;;;;;8.73;6.20;;;7.10;99.90;;;;;;5053057;28;20439;-75
2022/09/23 03:49:57;;;;;;;7.67;6.00;;;7.00;99.90;;;;;;5051480;28;20440;-74
2022/09/23 03:52:24;;;;;;;9.03;7.07;;;6.90;99.90;;;;;;5052963;28;20438;-75
2022/09/23 03:54:50;;;;;;;10.40;6.97;;;6.90;99.90;;;;;;5052638;28;20283;-75
2022/09/23 03:57:17;;;;;;;7.47;6.47;;;6.80;99.90;;;;;;5051121;28;20435;-75
2022/09/23 03:59:43;;;;;;;9.93;6.50;;;6.80;99.90;;;;;;5052400;28;20422;-74
2022/09/23 04:02:10;;;;;;;7.17;6.13;;;6.80;99.90;;;;;;5052314;28;20499;-75
2022/09/23 04:04:37;;;;;;;8.23;6.97;;;6.80;99.90;;;;;;5052467;28;20714;-75
2022/09/23 04:07:03;;;;;;;12.50;7.10;;;6.70;99.90;;;;;;5052326;28;20437;-75
2022/09/23 04:09:29;;;;;;;7.83;6.53;;;6.70;99.90;;;;;;5052347;28;20994;-74
2022/09/23 04:11:55;;;;;;;8.77;6.70;;;6.70;99.90;;;;;;5051985;28;20463;-75
2022/09/23 04:14:21;;;;;;;8.90;7.10;;;6.60;99.90;;;;;;5052159;28;20438;-75
2022/09/23 04:16:48;;;;;;;8.90;7.00;;;6.50;99.90;;;;;;5051917;28;20447;-75
2022/09/23 04:19:14;;;;;;;12.30;6.87;;;6.40;99.90;;;;;;5051957;28;21039;-75
2022/09/23 04:21:41;;;;;;;7.00;6.27;;;6.40;99.90;;;;;;5050609;28;20418;-75
2022/09/23 04:24:07;;;;;;;8.23;7.00;;;6.40;99.90;;;;;;5051914;28;20448;-75
2022/09/23 04:26:33;;;;;;;6.87;5.87;;;6.30;99.90;;;;;;5051855;28;20430;-75
2022/09/23 04:28:59;;;;;;;7.30;6.30;;;6.30;99.90;;;;;;5050300;28;20429;-75
2022/09/23 04:31:25;;;;;;;12.57;8.10;;;6.20;99.90;;;;;;5051732;28;20462;-75
2022/09/23 04:33:52;;;;;;;9.03;6.40;;;6.20;99.90;;;;;;5051715;28;20196;-75
2022/09/23 04:36:17;;;;;;;9.87;8.17;;;6.10;99.90;;;;;;5051629;28;20998;-75
2022/09/23 04:38:44;;;;;;;8.03;7.10;;;6.10;99.90;;;;;;5050189;28;20525;-74
2022/09/23 04:41:10;;;;;;;8.63;6.27;;;6.10;99.90;;;;;;5051642;28;20221;-75
2022/09/23 04:43:36;;;;;;;8.03;6.07;;;6.10;99.90;;;;;;5051456;28;20523;-74
2022/09/23 04:46:04;;;;;;;8.10;6.00;;;6.10;99.90;;;;;;5051523;28;20196;-75
2022/09/23 04:48:30;;;;;;;9.63;7.00;;;6.10;99.90;;;;;;5051511;28;20188;-75
2022/09/23 04:51:07;;;;;;;10.13;6.80;;;6.10;99.90;;;;;;5051371;28;20477;-75
2022/09/23 04:53:34;;;;;;;16.40;6.70;;;6.10;99.90;;;;;;5050283;28;20442;-76
2022/09/23 04:56:10;;;;;;;9.30;7.10;;;6.00;99.90;;;;;;5050949;28;20446;-76
2022/09/23 04:58:35;;;;;;;9.77;7.03;;;6.00;99.90;;;;;;5051344;28;20413;-74
2022/09/23 05:01:28;;;;;;;8.70;5.97;;;6.00;99.90;;;;;;5051196;28;20783;-74
2022/09/23 05:04:01;;;;;;;11.53;6.53;;;6.00;99.90;;;;;;5034210;28;20275;-75
2022/09/23 05:06:33;;;;;;;7.67;5.73;;;6.00;99.90;;;;;;5051003;28;20900;-75
2022/09/23 05:09:04;;;;;;;8.03;5.80;;;5.90;99.90;;;;;;5051030;28;20403;-76
2022/09/23 05:11:30;;;;;;;6.10;5.30;;;5.90;99.90;;;;;;5050980;28;20470;-75
2022/09/23 05:13:56;;;;;;;5.37;4.47;;;6.00;99.90;;;;;;5050958;28;21038;-75
2022/09/23 05:16:23;;;;;;;6.97;4.93;;;6.00;99.90;;;;;;5050859;28;20891;-75
2022/09/23 05:18:53;;;;;;;12.00;5.90;;;6.00;99.90;;;;;;5050825;28;20418;-75
2022/09/23 05:21:21;;;;;;;8.50;6.60;;;6.00;99.90;;;;;;5050891;28;20564;-77
2022/09/23 05:23:59;;;;;;;9.37;7.13;;;6.00;99.90;;;;;;5050830;28;20966;-75
2022/09/23 05:26:27;;;;;;;7.17;6.37;;;6.00;99.90;;;;;;5049236;28;20425;-75
2022/09/23 05:28:54;;;;;;;6.50;5.27;;;6.00;99.90;;;;;;5049319;28;20429;-75
2022/09/23 05:31:21;;;;;;;10.40;6.43;;;5.90;99.90;;;;;;5050604;28;20469;-75
2022/09/23 05:33:53;;;;;;;7.73;5.63;;;6.00;99.90;;;;;;5050465;28;20495;-74
2022/09/23 05:36:20;;;;;;;6.27;5.60;;;6.00;99.90;;;;;;5050376;28;20421;-75
2022/09/23 05:38:47;;;;;;;6.50;5.40;;;5.90;99.90;;;;;;5050579;28;20418;-75
2022/09/23 05:41:13;;;;;;;8.30;6.40;;;5.90;99.90;;;;;;5049002;28;20418;-75
2022/09/23 05:43:39;;;;;;;5.30;4.80;;;6.00;99.90;;;;;;5050376;28;20438;-75
2022/09/23 05:46:16;;;;;;;6.50;4.50;;;6.00;99.90;;;;;;5050363;28;20558;-75
2022/09/23 05:48:44;;;;;;;4.80;4.27;;;6.00;99.90;;;;;;5051933;28;20465;-75
2022/09/23 05:51:13;;;;;;;5.23;4.10;;;6.10;99.90;;;;;;5049102;28;20466;-75
2022/09/23 05:53:58;;;;;;;9.03;4.40;;;6.10;99.90;;;;;;5050251;28;20445;-75
2022/09/23 05:56:27;;;;;;;5.40;4.90;;;6.20;99.90;;;;;;5049984;28;20442;-75
2022/09/23 05:58:54;;;;;;;12.50;5.23;;;6.30;99.90;;;;;;5049939;28;20411;-75
2022/09/23 06:01:25;;;;;;;6.13;5.00;;;6.50;99.90;;;;;;5049920;28;20493;-75
2022/09/23 06:03:55;;;;;;;5.90;4.43;;;6.90;99.90;;;;;;5048419;28;20947;-76
2022/09/23 06:06:29;;;;;;;4.33;3.80;;;7.40;99.90;;;;;;5049425;28;20423;-76
2022/09/23 06:08:55;;;;;;;5.47;4.23;;;8.00;99.90;;;;;;5049770;28;20538;-75
2022/09/23 06:11:24;;;;;;;5.20;4.10;;;8.50;99.90;;;;;;5048124;28;20465;-75
2022/09/23 06:13:54;;;;;;;6.00;4.03;;;8.90;99.90;;;;;;5049589;28;20446;-75
2022/09/23 06:16:22;;;;;;;5.70;4.60;;;9.30;99.90;;;;;;5049290;28;20412;-75
2022/09/23 06:18:48;;;;;;;5.00;4.47;;;9.60;99.90;;;;;;5049241;28;20530;-75
2022/09/23 06:21:17;;;;;;;4.70;4.10;;;10.00;99.90;;;;;;5049793;28;21040;-75
2022/09/23 06:23:47;;;;;;;7.00;6.30;;;10.00;99.90;;;;;;5052051;28;20202;-75
2022/09/23 06:26:14;;;;;;;11.87;8.57;;;9.70;99.90;;;;;;5051590;28;21132;-75
2022/09/23 06:28:41;;;;;;;7.10;6.40;;;9.50;99.90;;;;;;5051763;28;20501;-75
2022/09/23 06:31:15;;;;;;;7.60;6.43;;;9.20;99.90;;;;;;5049836;28;20471;-74
2022/09/23 06:33:43;;;;;;;11.00;7.40;;;8.90;99.90;;;;;;5050322;28;20431;-74
2022/09/23 06:36:10;;;;;;;8.63;7.30;;;8.70;99.90;;;;;;5050724;28;20412;-75
2022/09/23 06:38:40;;;;;;;7.80;7.10;;;8.60;99.90;;;;;;5051292;28;20490;-74
2022/09/23 06:41:06;;;;;;;10.80;7.60;;;8.50;99.90;;;;;;5050605;28;20776;-74
2022/09/23 06:43:32;;;;;;;7.93;6.80;;;8.50;99.90;;;;;;5049244;28;20439;-75
2022/09/23 06:45:59;;;;;;;8.70;6.07;;;8.40;99.90;;;;;;5049350;28;20187;-75
2022/09/23 06:48:28;;;;;;;6.17;5.67;;;8.50;99.90;;;;;;5049235;28;20426;-75
2022/09/23 06:50:58;;;;;;;9.50;6.40;;;8.50;99.90;;;;;;5049248;28;20462;-74
2022/09/23 06:53:24;;;;;;;8.97;6.17;;;8.60;99.90;;;;;;5049132;28;20438;-75
2022/09/23 06:56:05;;;;;;;6.53;5.93;;;8.70;99.90;;;;;;5049459;28;20799;-75
2022/09/23 06:58:32;;;;;;;6.60;5.70;;;8.60;99.90;;;;;;5049401;28;20423;-75
2022/09/23 07:01:03;;;;;;;8.63;6.60;;;8.70;99.90;;;;;;5049604;28;20415;-74
2022/09/23 07:03:30;;;;;;;11.43;6.90;;;8.70;99.90;;;;;;5049497;28;20440;-75
2022/09/23 07:05:56;;;;;;;9.30;6.17;;;8.80;99.90;;;;;;5049348;28;20507;-75
2022/09/23 07:08:23;;;;;;;8.87;6.90;;;9.00;99.90;;;;;;5049345;28;20418;-75
2022/09/23 07:11:00;;;;;;;6.20;5.60;;;9.00;99.90;;;;;;5049211;28;20469;-74
2022/09/23 07:13:26;;;;;;;7.80;5.80;;;9.20;99.90;;;;;;5047721;28;20452;-75
2022/09/23 07:15:57;;;;;;;7.57;6.10;;;9.20;99.90;;;;;;5049245;28;20474;-75
2022/09/23 07:18:24;;;;;;;6.10;5.43;;;9.30;99.90;;;;;;5052693;28;20499;-75
2022/09/23 07:20:54;;;;;;;7.53;5.97;;;9.40;99.90;;;;;;5053227;28;20454;-75
2022/09/23 07:23:20;;;;;;;5.80;5.13;;;9.40;99.90;;;;;;5052837;28;20450;-75
2022/09/23 07:25:49;;;;;;;6.50;5.50;;;9.50;99.90;;;;;;5053081;28;20426;-75
2022/09/23 07:28:14;;;;;;;8.50;5.30;;;9.70;99.90;;;;;;5053077;28;20423;-75
2022/09/23 07:30:43;;;;;;;5.20;4.70;;;9.80;99.90;;;;;;5052893;28;20523;-74
2022/09/23 07:33:09;;;;;;;5.70;5.13;;;9.90;99.90;;;;;;5052847;28;20662;-75
2022/09/23 07:35:39;;;;;;;5.73;4.67;;;10.00;99.90;;;;;;5052820;28;20427;-75
2022/09/23 07:38:06;;;;;;;5.90;5.30;;;10.20;99.90;;;;;;5051402;28;20191;-75
2022/09/23 07:40:32;;;;;;;5.97;5.03;;;10.20;99.90;;;;;;5052927;28;20432;-74
2022/09/23 07:42:58;;;;;;;9.37;5.33;;;10.40;99.90;;;;;;5052810;28;20509;-75
2022/09/23 07:45:26;;;;;;;8.17;5.87;;;10.50;99.90;;;;;;5052487;28;20432;-75
2022/09/23 07:47:52;;;;;;;6.37;5.53;;;10.70;99.90;;;;;;5050615;28;20435;-75
2022/09/23 07:50:17;;;;;;;5.77;5.00;;;10.80;99.90;;;;;;5051046;28;20466;-75
2022/09/23 07:52:43;;;;;;;5.33;4.83;;;11.00;99.90;;;;;;5052101;28;20527;-75
2022/09/23 07:55:09;;;;;;;7.90;4.97;;;11.10;99.90;;;;;;5052428;28;20719;-75
2022/09/23 07:57:35;;;;;;;5.03;4.40;;;11.20;99.90;;;;;;5052208;28;20449;-75
2022/09/23 08:00:01;;;;;;;5.87;5.00;;;11.50;99.90;;;;;;5050962;28;20534;-75
2022/09/23 08:02:26;;;;;;;5.37;4.90;;;11.60;99.90;;;;;;5052263;28;20202;-75
2022/09/23 08:04:53;;;;;;;5.80;4.20;;;11.70;99.90;;;;;;5052358;28;20515;-75
2022/09/23 08:07:19;;;;;;;5.70;4.00;;;11.90;99.90;;;;;;5052282;28;20194;-75
2022/09/23 08:09:45;;;;;;;6.27;4.07;;;12.00;99.90;;;;;;5052281;28;20422;-75
2022/09/23 08:12:14;;;;;;;4.30;3.90;;;12.10;99.90;;;;;;5052112;28;20212;-74
2022/09/23 08:14:40;;;;;;;4.13;3.73;;;12.30;99.90;;;;;;5052105;28;20178;-74
2022/09/23 08:17:06;;;;;;;4.20;3.80;;;12.50;99.90;;;;;;5052020;28;20440;-75
2022/09/23 08:19:32;;;;;;;4.93;3.70;;;12.80;99.90;;;;;;5050535;28;20519;-75
2022/09/23 08:21:58;;;;;;;4.53;4.13;;;12.80;99.90;;;;;;5051427;28;21349;-75
2022/09/23 08:24:25;;;;;;;4.50;4.00;;;12.90;99.90;;;;;;5051753;28;20195;-74
2022/09/23 08:26:52;;;;;;;5.70;3.50;;;13.10;99.90;;;;;;5051608;28;20280;-74
2022/09/23 08:29:19;;;;;;;4.60;4.00;;;13.20;99.90;;;;;;5051619;28;20795;-74
2022/09/23 08:31:46;;;;;;;3.80;3.50;;;13.40;99.90;;;;;;5051414;28;20477;-75
2022/09/23 08:34:12;;;;;;;4.80;3.67;;;13.50;99.90;;;;;;5049863;28;20970;-75
2022/09/23 08:36:37;;;;;;;4.70;4.30;;;13.60;99.90;;;;;;5051170;28;20418;-75
2022/09/23 08:39:04;;;;;;;5.53;4.27;;;13.70;99.90;;;;;;5051191;28;20422;-74
2022/09/23 08:41:33;;;;;;;8.07;3.80;;;13.80;99.90;;;;;;5052784;28;20192;-75
2022/09/23 08:44:24;;;;;;;8.50;4.10;;;13.90;99.90;;;;;;5049690;28;20457;-75
2022/09/23 08:47:27;;;;;;;8.20;3.77;;;14.00;99.90;;;;;;5049853;28;20933;-74
2022/09/23 08:50:15;;;;;;;4.10;3.70;;;14.10;99.90;;;;;;5050936;28;21097;-74
2022/09/23 08:52:49;;;;;;;6.70;5.30;;;14.20;99.90;;;;;;5049757;28;21119;-74
2022/09/23 08:55:15;;;;;;;4.70;4.30;;;14.30;99.90;;;;;;5051231;28;20499;-74
2022/09/23 08:58:06;;;;;;;9.33;4.53;;;14.50;99.90;;;;;;5050901;28;20446;-73
2022/09/23 09:00:43;;;;;;;6.40;4.20;;;14.60;99.90;;;;;;5050696;28;20509;-74
2022/09/23 09:03:34;;;;;;;6.00;4.37;;;14.70;99.90;;;;;;5050657;28;20942;-75
2022/09/23 09:06:00;;;;;;;4.73;4.23;;;14.80;99.90;;;;;;5050956;28;20419;-75
2022/09/23 09:08:31;;;;;;;6.10;4.33;;;14.90;99.90;;;;;;5049720;28;20427;-75
2022/09/23 09:11:00;;;;;;;6.37;4.90;;;15.20;99.90;;;;;;5051103;28;20550;-75
2022/09/23 09:13:43;;;;;;;6.90;5.37;;;15.30;99.90;;;;;;5051015;28;20442;-75
2022/09/23 09:16:28;;;;;;;7.00;5.07;;;15.30;99.90;;;;;;5049424;28;20505;-75
2022/09/23 09:19:00;;;;;;;5.43;4.63;;;15.60;99.90;;;;;;5050892;28;20400;-75
2022/09/23 09:21:36;;;;;;;10.33;5.50;;;15.70;99.90;;;;;;5050565;28;20477;-75
2022/09/23 09:24:18;;;;;;;8.30;5.40;;;15.80;99.90;;;;;;5050545;28;20442;-75
2022/09/23 09:26:44;;;;;;;12.20;5.60;;;15.90;99.90;;;;;;5050658;28;20841;-75
2022/09/23 09:29:32;;;;;;;7.70;4.70;;;16.00;99.90;;;;;;5050608;28;20431;-75
2022/09/23 09:31:58;;;;;;;11.13;5.40;;;16.20;99.90;;;;;;5050612;28;20213;-75
2022/09/23 09:34:37;;;;;;;11.70;5.70;;;16.30;99.90;;;;;;5050241;28;21090;-75
2022/09/23 09:37:39;;;;;;;7.00;4.47;;;16.40;99.90;;;;;;5050137;28;21010;-75
2022/09/23 09:40:10;;;;;;;8.73;5.23;;;16.40;99.90;;;;;;5049571;28;20412;-75
2022/09/23 09:42:41;;;;;;;6.07;4.30;;;16.70;99.90;;;;;;5049831;28;20438;-75
2022/09/23 09:45:32;;;;;;;7.93;4.80;;;17.00;99.90;;;;;;5050285;28;20985;-75
2022/09/23 09:48:15;;;;;;;7.43;3.60;;;17.20;99.90;;;;;;5050268;28;20416;-75
2022/09/23 09:50:41;;;;;;;12.53;4.27;;;17.70;99.90;;;;;;5050145;28;20462;-75
2022/09/23 09:53:21;;;;;;;6.50;3.90;;;17.80;99.90;;;;;;5050018;28;20443;-75
2022/09/23 09:55:57;;;;;;;6.00;3.83;;;18.30;99.90;;;;;;5050215;28;20263;-75
2022/09/23 09:58:24;;;;;;;6.20;4.30;;;18.60;99.90;;;;;;5048682;28;20494;-75
2022/09/23 10:00:51;;;;;;;4.97;4.43;;;18.90;99.90;;;;;;5050096;28;20421;-75
2022/09/23 10:03:23;;;;;;;4.23;3.83;;;19.00;99.90;;;;;;5049948;28;20580;-75
2022/09/23 10:05:53;;;;;;;5.20;4.10;;;19.40;99.90;;;;;;5050031;28;20976;-75
2022/09/23 10:08:31;;;;;;;7.73;3.80;;;19.70;99.80;;;;;;5049941;28;20419;-75
2022/09/23 10:11:07;;;;;;;8.77;5.00;;;19.80;99.70;;;;;;5049632;28;20754;-75
2022/09/23 10:13:32;;;;;;;5.20;4.13;;;19.70;99.30;;;;;;5049594;28;20495;-75
2022/09/23 10:16:03;;;;;;;3.97;3.37;;;19.70;98.90;;;;;;5049488;28;20501;-75
2022/09/23 10:18:30;;;;;;;8.07;4.10;;;19.80;98.90;;;;;;5049320;28;20418;-75
2022/09/23 10:21:09;;;;;;;10.97;4.13;;;20.30;99.20;;;;;;5049606;28;20415;-75
2022/09/23 10:23:57;;;;;;;10.93;5.17;;;20.60;97.00;;;;;;5049338;28;20529;-75
2022/09/23 10:26:32;;;;;;;6.97;3.30;;;20.60;96.20;;;;;;5049692;28;20568;-75
2022/09/23 10:29:02;;;;;;;6.90;3.77;;;21.10;97.30;;;;;;5031848;28;20907;-76
2022/09/23 10:31:34;;;;;;;6.03;4.10;;;21.50;94.30;;;;;;5049322;28;20469;-75
2022/09/23 10:34:02;;;;;;;6.87;3.90;;;21.90;93.10;;;;;;5049074;28;20435;-75
2022/09/23 10:36:30;;;;;;;3.60;3.37;;;21.80;92.70;;;;;;5049137;28;20430;-75
2022/09/23 10:48:34;;;;;;;8.50;4.10;;;21.40;92.30;;;;;;5047760;28;20422;-75
2022/09/23 10:51:09;;;;;;;4.87;4.30;;;21.50;94.40;;;;;;5048828;28;20465;-76
2022/09/23 10:54:05;;;;;;;4.97;4.30;;;21.70;94.70;;;;;;5052767;28;20429;-75
2022/09/23 10:56:51;;;;;;;5.10;4.10;;;21.70;94.20;;;;;;5052943;28;20446;-76
2022/09/23 10:59:42;;;;;;;5.63;3.80;;;21.60;93.50;;;;;;5052738;28;21132;-76
2022/09/23 11:02:36;;;;;;;4.30;3.40;;;21.70;93.40;;;;;;5052708;28;20418;-76
2022/09/23 11:05:40;;;;;;;13.30;3.83;;;22.10;93.80;;;;;;5052539;28;20412;-76
2022/09/23 11:08:35;;;;;;;8.20;3.13;;;22.10;93.70;;;;;;5051422;28;20421;-75
2022/09/23 11:11:32;;;;;;;7.90;4.33;;;22.00;92.70;;;;;;5052573;28;20477;-75
2022/09/23 11:14:15;;;;;;;4.10;3.70;;;22.20;93.20;;;;;;5052512;28;20426;-75
2022/09/23 11:16:44;;;;;;;6.10;3.53;;;22.40;91.80;;;;;;5052698;28;20413;-75
2022/09/23 11:19:31;;;;;;;7.00;3.90;;;22.60;92.30;;;;;;5052249;28;20429;-75
2022/09/23 11:22:07;;;;;;;5.70;3.77;;;23.00;92.80;;;;;;5053712;28;20410;-76
2022/09/23 11:24:59;;;;;;;8.47;4.20;;;23.10;90.90;;;;;;5053873;28;20419;-75
2022/09/23 11:27:50;;;;;;;3.47;3.17;;;23.50;88.60;;;;;;5067459;28;20419;-75
2022/09/23 11:30:21;;;;;;;4.07;3.17;;;23.80;87.40;;;;;;5064598;28;20438;-75
2022/09/23 11:32:55;;;;;;;3.97;3.20;;;23.70;87.50;;;;;;5069940;28;20444;-74
2022/09/23 11:35:46;;;;;;;4.27;3.30;;;23.80;85.00;;;;;;5070323;28;20762;-75
2022/09/23 11:38:24;;;;;;;4.83;2.63;;;23.50;83.00;;;;;;5047397;28;20432;-75
2022/09/23 11:40:54;;;;;;;3.40;2.33;;;23.50;83.80;;;;;;5052848;28;20915;-76
2022/09/23 11:43:32;;;;;;;4.10;3.20;;;23.70;84.30;;;;;;5052154;28;20456;-75
2022/09/23 11:46:08;;;;;;;4.13;3.03;;;23.80;79.10;;;;;;5052191;28;20460;-76
2022/09/23 11:49:06;;;;;;;3.10;2.57;;;23.90;79.70;;;;;;5052436;28;20804;-76
2022/09/23 11:51:38;;;;;;;4.60;2.93;;;23.60;80.40;;;;;;5016885;28;20494;-76
2022/09/23 11:54:08;;;;;;;4.57;2.60;;;23.50;78.60;;;;;;5051828;28;20784;-76
2022/09/23 11:56:41;;;;;;;4.90;2.50;;;23.40;79.10;;;;;;5051516;28;20524;-76
2022/09/23 11:59:17;;;;;;;10.07;2.93;;;23.30;79.70;;;;;;5051705;28;20505;-76
2022/09/23 12:02:25;;;;;;;4.93;3.17;;;23.40;78.30;;;;;;5051497;28;20409;-76
2022/09/23 12:05:19;;;;;;;8.10;2.80;;;23.40;77.80;;;;;;5014107;28;21027;-76
2022/09/23 12:07:55;;;;;;;6.07;3.10;;;23.50;77.60;;;;;;5051370;28;20432;-76
2022/09/23 12:10:24;;;;;;;3.20;2.37;;;23.60;74.50;;;;;;5051265;28;20455;-76
2022/09/23 12:13:03;;;;;;;4.77;3.10;;;23.50;75.40;;;;;;5051547;28;20489;-76
2022/09/23 12:15:38;;;;;;;2.97;2.40;;;22.90;76.50;;;;;;5051233;28;20415;-76
2022/09/23 12:18:34;;;;;;;4.67;3.00;;;22.50;78.80;;;;;;5049851;28;20443;-75
2022/09/23 12:21:12;;;;;;;6.83;2.60;;;22.40;79.30;;;;;;5051315;28;20914;-75
2022/09/23 12:24:21;;;;;;;6.30;2.87;;;22.70;78.20;;;;;;5049675;28;20445;-75
2022/09/23 12:26:53;;;;;;;4.30;2.87;;;22.70;75.90;;;;;;5051603;28;20756;-76
2022/09/23 12:29:19;;;;;;;3.90;3.10;;;23.00;79.10;;;;;;5049726;28;20446;-77
2022/09/23 12:31:45;;;;;;;8.13;2.70;;;23.00;74.20;;;;;;5050808;28;20473;-76
2022/09/23 12:34:22;;;;;;;3.53;2.60;;;23.00;76.20;;;;;;5050843;28;20447;-76
2022/09/23 12:36:48;;;;;;;5.37;2.77;;;23.10;77.30;;;;;;5050956;28;21279;-76
2022/09/23 12:39:26;;;;;;;4.67;2.93;;;23.20;78.10;;;;;;5051183;28;20432;-76
2022/09/23 12:42:14;;;;;;;6.70;3.00;;;23.20;76.50;;;;;;5050897;28;20892;-76
2022/09/23 12:44:43;;;;;;;3.83;3.00;;;23.10;73.40;;;;;;5049758;28;20464;-77
2022/09/23 12:47:20;;;;;;;6.70;2.90;;;22.60;72.70;;;;;;5050584;28;20850;-76
2022/09/23 12:49:46;;;;;;;4.33;2.70;;;22.60;76.10;;;;;;5050857;28;20418;-76
2022/09/23 12:52:24;;;;;;;5.20;3.10;;;22.70;79.60;;;;;;5050345;28;20478;-76
2022/09/23 12:54:50;;;;;;;8.17;3.10;;;22.80;80.40;;;;;;5049142;28;20952;-76
2022/09/23 12:57:34;;;;;;;4.00;3.03;;;22.40;78.30;;;;;;5050633;28;20528;-76
2022/09/23 13:00:08;;;;;;;2.80;2.43;;;22.30;80.80;;;;;;5050518;28;20536;-76
2022/09/23 13:02:39;;;;;;;5.13;3.27;;;22.30;80.50;;;;;;5050562;28;20452;-75
2022/09/23 13:07:58;;;;;;;10.50;2.80;;;22.20;81.10;;;;;;5050473;28;20461;-75
2022/09/23 13:10:26;;;;;;;3.13;2.40;;;22.30;81.10;;;;;;5050180;28;20426;-76
2022/09/23 13:12:54;;;;;;;5.93;2.53;;;22.30;76.20;;;;;;5050127;28;20474;-75
2022/09/23 13:15:32;;;;;;;5.20;2.60;;;22.20;75.20;;;;;;5049368;28;20461;-75
2022/09/23 13:18:53;;;;;;;8.70;2.43;;;22.20;80.20;;;;;;5049972;28;20424;-76
2022/09/23 13:21:41;;;;;;;8.20;3.30;;;22.30;78.60;;;;;;5007974;28;20572;-75
2022/09/23 13:24:16;;;;;;;3.50;3.20;;;22.30;76.20;;;;;;5049780;28;20447;-77
2022/09/23 13:27:03;;;;;;;4.13;2.53;;;22.30;76.40;;;;;;5049982;28;20926;-76
2022/09/23 13:29:34;;;;;;;2.37;2.17;;;22.20;76.60;;;;;;5048560;28;20477;-76
2022/09/23 13:32:00;;;;;;;3.30;2.20;;;22.20;73.60;;;;;;5048446;28;20569;-75
2022/09/23 13:34:31;;;;;;;3.03;2.10;;;22.10;77.10;;;;;;5048393;28;20425;-75
2022/09/23 13:36:57;;;;;;;4.60;2.37;;;22.00;79.90;;;;;;5049920;28;20422;-76